sensor_id;sensor_type;location;lat;lon;timestamp;P1;durP1;ratioP1;P2;durP2;ratioP2
20754;SDS011;26385;48.470;7.938;2022-08-25T00:01:22;4.20;;;3.03;;
20754;SDS011;26385;48.470;7.938;2022-08-25T00:03:49;3.35;;;2.75;;
20754;SDS011;26385;48.470;7.938;2022-08-25T00:06:16;3.03;;;2.72;;
20754;SDS011;26385;48.470;7.938;2022-08-25T00:08:42;4.20;;;3.28;;
20754;SDS011;26385;48.470;7.938;2022-08-25T00:11:12;4.18;;;3.20;;
20754;SDS011;26385;48.470;7.938;2022-08-25T00:13:43;3.95;;;3.33;;
20754;SDS011;26385;48.470;7.938;2022-08-25T00:16:10;3.83;;;3.22;;
20754;SDS011;26385;48.470;7.938;2022-08-25T00:18:40;3.70;;;3.40;;
20754;SDS011;26385;48.470;7.938;2022-08-25T00:21:06;4.93;;;3.35;;
20754;SDS011;26385;48.470;7.938;2022-08-25T00:23:32;3.47;;;3.13;;
20754;SDS011;26385;48.470;7.938;2022-08-25T00:25:58;3.63;;;3.30;;
20754;SDS011;26385;48.470;7.938;2022-08-25T00:28:23;3.92;;;3.30;;
20754;SDS011;26385;48.470;7.938;2022-08-25T00:30:49;4.63;;;3.15;;
20754;SDS011;26385;48.470;7.938;2022-08-25T00:33:15;3.53;;;3.22;;
20754;SDS011;26385;48.470;7.938;2022-08-25T00:35:41;3.83;;;3.40;;
20754;SDS011;26385;48.470;7.938;2022-08-25T00:38:08;3.67;;;3.38;;
20754;SDS011;26385;48.470;7.938;2022-08-25T00:40:34;4.13;;;3.75;;
20754;SDS011;26385;48.470;7.938;2022-08-25T00:43:01;3.72;;;3.38;;
20754;SDS011;26385;48.470;7.938;2022-08-25T00:45:26;4.68;;;3.40;;
20754;SDS011;26385;48.470;7.938;2022-08-25T00:47:52;3.58;;;3.28;;
20754;SDS011;26385;48.470;7.938;2022-08-25T00:50:17;6.60;;;3.13;;
20754;SDS011;26385;48.470;7.938;2022-08-25T00:52:47;4.18;;;3.13;;
20754;SDS011;26385;48.470;7.938;2022-08-25T00:55:20;3.63;;;3.33;;
20754;SDS011;26385;48.470;7.938;2022-08-25T01:00:33;3.53;;;3.15;;
20754;SDS011;26385;48.470;7.938;2022-08-25T01:03:01;3.50;;;3.20;;
20754;SDS011;26385;48.470;7.938;2022-08-25T01:05:27;3.83;;;3.47;;
20754;SDS011;26385;48.470;7.938;2022-08-25T01:07:53;3.47;;;3.17;;
20754;SDS011;26385;48.470;7.938;2022-08-25T01:10:20;3.80;;;3.10;;
20754;SDS011;26385;48.470;7.938;2022-08-25T01:12:48;3.20;;;3.00;;
20754;SDS011;26385;48.470;7.938;2022-08-25T01:15:15;3.83;;;3.42;;
20754;SDS011;26385;48.470;7.938;2022-08-25T01:17:48;3.50;;;3.20;;
20754;SDS011;26385;48.470;7.938;2022-08-25T01:20:20;3.38;;;3.08;;
20754;SDS011;26385;48.470;7.938;2022-08-25T01:22:47;3.67;;;3.38;;
20754;SDS011;26385;48.470;7.938;2022-08-25T01:28:04;3.10;;;2.90;;
20754;SDS011;26385;48.470;7.938;2022-08-25T01:30:30;3.67;;;3.38;;
20754;SDS011;26385;48.470;7.938;2022-08-25T01:32:55;4.03;;;3.47;;
20754;SDS011;26385;48.470;7.938;2022-08-25T01:35:21;3.40;;;3.20;;
20754;SDS011;26385;48.470;7.938;2022-08-25T01:37:47;4.93;;;3.42;;
20754;SDS011;26385;48.470;7.938;2022-08-25T01:40:13;4.07;;;3.45;;
20754;SDS011;26385;48.470;7.938;2022-08-25T01:42:41;4.18;;;3.53;;
20754;SDS011;26385;48.470;7.938;2022-08-25T01:45:16;5.10;;;3.10;;
20754;SDS011;26385;48.470;7.938;2022-08-25T01:47:42;4.57;;;3.13;;
20754;SDS011;26385;48.470;7.938;2022-08-25T01:50:07;4.05;;;3.25;;
20754;SDS011;26385;48.470;7.938;2022-08-25T01:52:37;5.05;;;3.60;;
20754;SDS011;26385;48.470;7.938;2022-08-25T01:55:10;4.05;;;3.33;;
20754;SDS011;26385;48.470;7.938;2022-08-25T01:57:36;3.60;;;3.30;;
20754;SDS011;26385;48.470;7.938;2022-08-25T02:00:03;5.20;;;3.50;;
20754;SDS011;26385;48.470;7.938;2022-08-25T02:02:30;3.72;;;3.15;;
20754;SDS011;26385;48.470;7.938;2022-08-25T02:04:55;4.72;;;3.20;;
20754;SDS011;26385;48.470;7.938;2022-08-25T02:07:20;3.70;;;3.40;;
20754;SDS011;26385;48.470;7.938;2022-08-25T02:09:45;4.68;;;3.40;;
20754;SDS011;26385;48.470;7.938;2022-08-25T02:12:11;3.55;;;2.90;;
20754;SDS011;26385;48.470;7.938;2022-08-25T02:14:36;4.10;;;3.10;;
20754;SDS011;26385;48.470;7.938;2022-08-25T02:17:02;4.32;;;3.00;;
20754;SDS011;26385;48.470;7.938;2022-08-25T02:19:28;5.50;;;3.85;;
20754;SDS011;26385;48.470;7.938;2022-08-25T02:21:55;4.13;;;2.97;;
20754;SDS011;26385;48.470;7.938;2022-08-25T02:24:21;3.78;;;3.38;;
20754;SDS011;26385;48.470;7.938;2022-08-25T02:26:46;5.90;;;3.40;;
20754;SDS011;26385;48.470;7.938;2022-08-25T02:29:12;4.07;;;3.67;;
20754;SDS011;26385;48.470;7.938;2022-08-25T02:31:38;3.78;;;3.45;;
20754;SDS011;26385;48.470;7.938;2022-08-25T02:34:04;3.83;;;3.53;;
20754;SDS011;26385;48.470;7.938;2022-08-25T02:36:30;4.35;;;3.70;;
20754;SDS011;26385;48.470;7.938;2022-08-25T02:38:58;3.88;;;3.58;;
20754;SDS011;26385;48.470;7.938;2022-08-25T02:41:24;3.92;;;3.42;;
20754;SDS011;26385;48.470;7.938;2022-08-25T02:43:51;3.80;;;3.50;;
20754;SDS011;26385;48.470;7.938;2022-08-25T02:46:17;3.60;;;3.30;;
20754;SDS011;26385;48.470;7.938;2022-08-25T02:48:44;3.65;;;3.30;;
20754;SDS011;26385;48.470;7.938;2022-08-25T02:51:10;3.50;;;3.20;;
20754;SDS011;26385;48.470;7.938;2022-08-25T02:53:36;3.53;;;3.17;;
20754;SDS011;26385;48.470;7.938;2022-08-25T02:56:07;4.03;;;3.63;;
20754;SDS011;26385;48.470;7.938;2022-08-25T02:58:34;3.92;;;3.55;;
20754;SDS011;26385;48.470;7.938;2022-08-25T03:01:00;3.80;;;3.50;;
20754;SDS011;26385;48.470;7.938;2022-08-25T03:03:25;3.65;;;3.35;;
20754;SDS011;26385;48.470;7.938;2022-08-25T03:05:51;3.60;;;3.30;;
20754;SDS011;26385;48.470;7.938;2022-08-25T03:08:16;3.50;;;3.20;;
20754;SDS011;26385;48.470;7.938;2022-08-25T03:10:42;3.50;;;3.20;;
20754;SDS011;26385;48.470;7.938;2022-08-25T03:13:07;3.25;;;2.95;;
20754;SDS011;26385;48.470;7.938;2022-08-25T03:15:33;4.97;;;3.63;;
20754;SDS011;26385;48.470;7.938;2022-08-25T03:18:01;4.00;;;3.60;;
20754;SDS011;26385;48.470;7.938;2022-08-25T03:20:28;3.92;;;3.53;;
20754;SDS011;26385;48.470;7.938;2022-08-25T03:22:53;4.00;;;3.70;;
20754;SDS011;26385;48.470;7.938;2022-08-25T03:25:19;3.88;;;3.58;;
20754;SDS011;26385;48.470;7.938;2022-08-25T03:28:03;6.07;;;3.80;;
20754;SDS011;26385;48.470;7.938;2022-08-25T03:30:30;3.85;;;3.55;;
20754;SDS011;26385;48.470;7.938;2022-08-25T03:32:55;4.13;;;3.60;;
20754;SDS011;26385;48.470;7.938;2022-08-25T03:35:21;4.63;;;4.22;;
20754;SDS011;26385;48.470;7.938;2022-08-25T03:37:47;8.55;;;4.40;;
20754;SDS011;26385;48.470;7.938;2022-08-25T03:40:13;5.55;;;4.32;;
20754;SDS011;26385;48.470;7.938;2022-08-25T03:42:41;6.82;;;4.45;;
20754;SDS011;26385;48.470;7.938;2022-08-25T03:45:07;6.88;;;4.40;;
20754;SDS011;26385;48.470;7.938;2022-08-25T03:47:33;5.43;;;3.97;;
20754;SDS011;26385;48.470;7.938;2022-08-25T03:49:58;6.05;;;4.45;;
20754;SDS011;26385;48.470;7.938;2022-08-25T03:52:24;5.00;;;4.50;;
20754;SDS011;26385;48.470;7.938;2022-08-25T03:54:50;4.50;;;4.10;;
20754;SDS011;26385;48.470;7.938;2022-08-25T03:57:15;5.97;;;4.50;;
20754;SDS011;26385;48.470;7.938;2022-08-25T03:59:40;4.78;;;4.38;;
20754;SDS011;26385;48.470;7.938;2022-08-25T04:02:06;5.45;;;4.18;;
20754;SDS011;26385;48.470;7.938;2022-08-25T04:04:31;4.50;;;4.10;;
20754;SDS011;26385;48.470;7.938;2022-08-25T04:06:57;5.85;;;4.45;;
20754;SDS011;26385;48.470;7.938;2022-08-25T04:09:23;5.85;;;4.40;;
20754;SDS011;26385;48.470;7.938;2022-08-25T04:11:49;4.60;;;4.15;;
20754;SDS011;26385;48.470;7.938;2022-08-25T04:14:14;4.43;;;4.03;;
20754;SDS011;26385;48.470;7.938;2022-08-25T04:16:40;4.75;;;4.28;;
20754;SDS011;26385;48.470;7.938;2022-08-25T04:19:06;5.40;;;4.07;;
20754;SDS011;26385;48.470;7.938;2022-08-25T04:21:34;4.88;;;4.38;;
20754;SDS011;26385;48.470;7.938;2022-08-25T04:24:01;4.82;;;4.25;;
20754;SDS011;26385;48.470;7.938;2022-08-25T04:26:28;7.10;;;4.60;;
20754;SDS011;26385;48.470;7.938;2022-08-25T04:28:56;7.70;;;4.60;;
20754;SDS011;26385;48.470;7.938;2022-08-25T04:31:24;8.88;;;6.50;;
20754;SDS011;26385;48.470;7.938;2022-08-25T04:33:50;7.25;;;5.65;;
20754;SDS011;26385;48.470;7.938;2022-08-25T04:36:16;7.45;;;5.00;;
20754;SDS011;26385;48.470;7.938;2022-08-25T04:38:43;10.80;;;6.25;;
20754;SDS011;26385;48.470;7.938;2022-08-25T04:41:11;5.32;;;4.55;;
20754;SDS011;26385;48.470;7.938;2022-08-25T04:43:38;5.13;;;4.38;;
20754;SDS011;26385;48.470;7.938;2022-08-25T04:46:06;5.88;;;4.25;;
20754;SDS011;26385;48.470;7.938;2022-08-25T04:48:33;4.60;;;4.20;;
20754;SDS011;26385;48.470;7.938;2022-08-25T04:51:03;4.95;;;4.15;;
20754;SDS011;26385;48.470;7.938;2022-08-25T04:53:29;4.88;;;4.13;;
20754;SDS011;26385;48.470;7.938;2022-08-25T04:55:55;4.55;;;4.10;;
20754;SDS011;26385;48.470;7.938;2022-08-25T04:58:21;5.32;;;4.22;;
20754;SDS011;26385;48.470;7.938;2022-08-25T05:00:46;6.70;;;4.60;;
20754;SDS011;26385;48.470;7.938;2022-08-25T05:03:11;6.32;;;4.53;;
20754;SDS011;26385;48.470;7.938;2022-08-25T05:05:38;5.07;;;4.38;;
20754;SDS011;26385;48.470;7.938;2022-08-25T05:08:04;5.30;;;4.60;;
20754;SDS011;26385;48.470;7.938;2022-08-25T05:10:30;6.18;;;4.75;;
20754;SDS011;26385;48.470;7.938;2022-08-25T05:12:56;5.20;;;4.63;;
20754;SDS011;26385;48.470;7.938;2022-08-25T05:15:22;6.43;;;5.00;;
20754;SDS011;26385;48.470;7.938;2022-08-25T05:18:06;5.95;;;5.35;;
20754;SDS011;26385;48.470;7.938;2022-08-25T05:20:31;7.95;;;5.03;;
20754;SDS011;26385;48.470;7.938;2022-08-25T05:23:00;7.53;;;4.93;;
20754;SDS011;26385;48.470;7.938;2022-08-25T05:25:25;5.90;;;4.47;;
20754;SDS011;26385;48.470;7.938;2022-08-25T05:27:51;7.13;;;4.75;;
20754;SDS011;26385;48.470;7.938;2022-08-25T05:30:16;5.30;;;4.80;;
20754;SDS011;26385;48.470;7.938;2022-08-25T05:32:41;9.07;;;4.88;;
20754;SDS011;26385;48.470;7.938;2022-08-25T05:35:07;5.35;;;4.85;;
20754;SDS011;26385;48.470;7.938;2022-08-25T05:37:32;6.28;;;4.60;;
20754;SDS011;26385;48.470;7.938;2022-08-25T05:39:58;5.30;;;4.70;;
20754;SDS011;26385;48.470;7.938;2022-08-25T05:42:24;5.22;;;4.72;;
20754;SDS011;26385;48.470;7.938;2022-08-25T05:44:52;7.70;;;5.10;;
20754;SDS011;26385;48.470;7.938;2022-08-25T05:47:17;5.10;;;4.47;;
20754;SDS011;26385;48.470;7.938;2022-08-25T05:49:42;5.40;;;4.50;;
20754;SDS011;26385;48.470;7.938;2022-08-25T05:52:08;5.63;;;4.50;;
20754;SDS011;26385;48.470;7.938;2022-08-25T05:54:33;5.30;;;4.80;;
20754;SDS011;26385;48.470;7.938;2022-08-25T05:56:59;6.18;;;5.07;;
20754;SDS011;26385;48.470;7.938;2022-08-25T05:59:25;4.68;;;4.28;;
20754;SDS011;26385;48.470;7.938;2022-08-25T06:01:50;4.43;;;4.05;;
20754;SDS011;26385;48.470;7.938;2022-08-25T06:04:34;4.20;;;3.80;;
20754;SDS011;26385;48.470;7.938;2022-08-25T06:07:00;4.93;;;4.03;;
20754;SDS011;26385;48.470;7.938;2022-08-25T06:09:25;4.03;;;3.72;;
20754;SDS011;26385;48.470;7.938;2022-08-25T06:11:50;4.20;;;3.63;;
20754;SDS011;26385;48.470;7.938;2022-08-25T06:14:16;4.45;;;4.05;;
20754;SDS011;26385;48.470;7.938;2022-08-25T06:16:42;5.53;;;3.80;;
20754;SDS011;26385;48.470;7.938;2022-08-25T06:19:07;4.00;;;3.40;;
20754;SDS011;26385;48.470;7.938;2022-08-25T06:21:34;4.30;;;3.35;;
20754;SDS011;26385;48.470;7.938;2022-08-25T06:23:59;4.68;;;3.60;;
20754;SDS011;26385;48.470;7.938;2022-08-25T06:26:25;4.43;;;3.60;;
20754;SDS011;26385;48.470;7.938;2022-08-25T06:28:51;3.88;;;3.42;;
20754;SDS011;26385;48.470;7.938;2022-08-25T06:31:17;4.10;;;3.08;;
20754;SDS011;26385;48.470;7.938;2022-08-25T06:33:43;3.22;;;2.95;;
20754;SDS011;26385;48.470;7.938;2022-08-25T06:36:09;3.83;;;3.42;;
20754;SDS011;26385;48.470;7.938;2022-08-25T06:38:34;3.80;;;3.47;;
20754;SDS011;26385;48.470;7.938;2022-08-25T06:41:01;3.97;;;3.58;;
20754;SDS011;26385;48.470;7.938;2022-08-25T06:43:27;4.47;;;3.72;;
20754;SDS011;26385;48.470;7.938;2022-08-25T06:45:52;3.75;;;3.45;;
20754;SDS011;26385;48.470;7.938;2022-08-25T06:48:18;5.67;;;3.33;;
20754;SDS011;26385;48.470;7.938;2022-08-25T06:50:43;4.40;;;3.60;;
20754;SDS011;26385;48.470;7.938;2022-08-25T06:53:08;4.13;;;3.65;;
20754;SDS011;26385;48.470;7.938;2022-08-25T06:55:34;4.70;;;4.20;;
20754;SDS011;26385;48.470;7.938;2022-08-25T06:58:00;6.22;;;4.22;;
20754;SDS011;26385;48.470;7.938;2022-08-25T07:00:27;7.07;;;4.20;;
20754;SDS011;26385;48.470;7.938;2022-08-25T07:02:52;6.45;;;4.28;;
20754;SDS011;26385;48.470;7.938;2022-08-25T07:05:17;4.75;;;4.10;;
20754;SDS011;26385;48.470;7.938;2022-08-25T07:07:43;4.38;;;3.97;;
20754;SDS011;26385;48.470;7.938;2022-08-25T07:10:10;4.97;;;4.03;;
20754;SDS011;26385;48.470;7.938;2022-08-25T07:12:37;6.10;;;3.90;;
20754;SDS011;26385;48.470;7.938;2022-08-25T07:15:03;4.38;;;3.95;;
20754;SDS011;26385;48.470;7.938;2022-08-25T07:17:29;6.53;;;4.07;;
20754;SDS011;26385;48.470;7.938;2022-08-25T07:19:54;6.82;;;4.57;;
20754;SDS011;26385;48.470;7.938;2022-08-25T07:22:19;8.00;;;4.50;;
20754;SDS011;26385;48.470;7.938;2022-08-25T07:24:45;24.87;;;5.90;;
20754;SDS011;26385;48.470;7.938;2022-08-25T07:27:10;12.88;;;4.43;;
20754;SDS011;26385;48.470;7.938;2022-08-25T07:29:35;4.70;;;3.90;;
20754;SDS011;26385;48.470;7.938;2022-08-25T07:32:03;5.82;;;4.22;;
20754;SDS011;26385;48.470;7.938;2022-08-25T07:34:29;4.70;;;3.72;;
20754;SDS011;26385;48.470;7.938;2022-08-25T07:37:13;4.65;;;3.70;;
20754;SDS011;26385;48.470;7.938;2022-08-25T07:39:39;3.55;;;3.25;;
20754;SDS011;26385;48.470;7.938;2022-08-25T07:42:04;3.60;;;3.28;;
20754;SDS011;26385;48.470;7.938;2022-08-25T07:44:30;48.50;;;9.05;;
20754;SDS011;26385;48.470;7.938;2022-08-25T07:46:55;65.23;;;11.23;;
20754;SDS011;26385;48.470;7.938;2022-08-25T07:49:22;32.53;;;6.10;;
20754;SDS011;26385;48.470;7.938;2022-08-25T07:51:52;11.27;;;4.40;;
20754;SDS011;26385;48.470;7.938;2022-08-25T07:54:18;5.72;;;4.22;;
20754;SDS011;26385;48.470;7.938;2022-08-25T07:56:44;6.43;;;4.15;;
20754;SDS011;26385;48.470;7.938;2022-08-25T07:59:09;21.65;;;5.78;;
20754;SDS011;26385;48.470;7.938;2022-08-25T08:01:35;39.38;;;8.00;;
20754;SDS011;26385;48.470;7.938;2022-08-25T08:04:01;11.43;;;5.10;;
20754;SDS011;26385;48.470;7.938;2022-08-25T08:06:27;6.65;;;4.30;;
20754;SDS011;26385;48.470;7.938;2022-08-25T08:08:52;5.70;;;4.35;;
20754;SDS011;26385;48.470;7.938;2022-08-25T08:11:20;7.63;;;4.05;;
20754;SDS011;26385;48.470;7.938;2022-08-25T08:13:48;14.82;;;4.97;;
20754;SDS011;26385;48.470;7.938;2022-08-25T08:16:15;15.25;;;4.80;;
20754;SDS011;26385;48.470;7.938;2022-08-25T08:18:42;5.22;;;4.13;;
20754;SDS011;26385;48.470;7.938;2022-08-25T08:21:16;4.25;;;3.85;;
20754;SDS011;26385;48.470;7.938;2022-08-25T08:23:44;5.55;;;3.95;;
20754;SDS011;26385;48.470;7.938;2022-08-25T08:26:09;5.13;;;3.60;;
20754;SDS011;26385;48.470;7.938;2022-08-25T08:28:35;4.35;;;3.72;;
20754;SDS011;26385;48.470;7.938;2022-08-25T08:31:00;4.13;;;3.45;;
20754;SDS011;26385;48.470;7.938;2022-08-25T08:33:26;4.78;;;3.50;;
20754;SDS011;26385;48.470;7.938;2022-08-25T08:38:28;6.88;;;3.75;;
20754;SDS011;26385;48.470;7.938;2022-08-25T08:44:00;3.72;;;3.13;;
20754;SDS011;26385;48.470;7.938;2022-08-25T08:46:35;3.65;;;3.08;;
20754;SDS011;26385;48.470;7.938;2022-08-25T08:52:08;3.28;;;2.97;;
20754;SDS011;26385;48.470;7.938;2022-08-25T08:54:37;4.45;;;3.10;;
20754;SDS011;26385;48.470;7.938;2022-08-25T08:57:17;4.22;;;3.03;;
20754;SDS011;26385;48.470;7.938;2022-08-25T08:59:48;3.88;;;3.25;;
20754;SDS011;26385;48.470;7.938;2022-08-25T09:02:22;3.65;;;3.20;;
20754;SDS011;26385;48.470;7.938;2022-08-25T09:04:53;3.53;;;3.20;;
20754;SDS011;26385;48.470;7.938;2022-08-25T09:07:25;3.10;;;2.80;;
20754;SDS011;26385;48.470;7.938;2022-08-25T09:09:55;3.65;;;2.75;;
20754;SDS011;26385;48.470;7.938;2022-08-25T09:15:32;2.78;;;2.40;;
20754;SDS011;26385;48.470;7.938;2022-08-25T09:18:37;3.13;;;2.50;;
20754;SDS011;26385;48.470;7.938;2022-08-25T09:30:11;3.88;;;2.58;;
20754;SDS011;26385;48.470;7.938;2022-08-25T09:33:00;2.30;;;2.10;;
20754;SDS011;26385;48.470;7.938;2022-08-25T09:35:32;2.50;;;2.30;;
20754;SDS011;26385;48.470;7.938;2022-08-25T09:38:03;3.35;;;2.50;;
20754;SDS011;26385;48.470;7.938;2022-08-25T09:40:32;3.50;;;2.70;;
20754;SDS011;26385;48.470;7.938;2022-08-25T09:43:00;2.70;;;2.50;;
20754;SDS011;26385;48.470;7.938;2022-08-25T09:48:21;2.75;;;2.50;;
20754;SDS011;26385;48.470;7.938;2022-08-25T09:50:53;4.00;;;2.55;;
20754;SDS011;26385;48.470;7.938;2022-08-25T09:53:24;2.75;;;2.38;;
20754;SDS011;26385;48.470;7.938;2022-08-25T09:56:01;3.25;;;2.30;;
20754;SDS011;26385;48.470;7.938;2022-08-25T09:58:29;4.07;;;2.50;;
20754;SDS011;26385;48.470;7.938;2022-08-25T10:01:00;2.78;;;2.53;;
20754;SDS011;26385;48.470;7.938;2022-08-25T10:03:29;3.22;;;2.65;;
20754;SDS011;26385;48.470;7.938;2022-08-25T10:11:00;2.75;;;2.30;;
20754;SDS011;26385;48.470;7.938;2022-08-25T10:13:33;2.72;;;2.53;;
20754;SDS011;26385;48.470;7.938;2022-08-25T10:16:04;4.28;;;2.72;;
20754;SDS011;26385;48.470;7.938;2022-08-25T10:19:02;2.95;;;2.53;;
20754;SDS011;26385;48.470;7.938;2022-08-25T10:21:29;3.10;;;2.30;;
20754;SDS011;26385;48.470;7.938;2022-08-25T10:23:55;2.88;;;2.50;;
20754;SDS011;26385;48.470;7.938;2022-08-25T10:26:32;3.95;;;2.58;;
20754;SDS011;26385;48.470;7.938;2022-08-25T10:32:04;2.30;;;2.20;;
20754;SDS011;26385;48.470;7.938;2022-08-25T10:34:38;3.42;;;2.20;;
20754;SDS011;26385;48.470;7.938;2022-08-25T10:40:14;2.78;;;2.60;;
20754;SDS011;26385;48.470;7.938;2022-08-25T10:42:55;3.22;;;2.60;;
20754;SDS011;26385;48.470;7.938;2022-08-25T10:45:42;4.22;;;2.50;;
20754;SDS011;26385;48.470;7.938;2022-08-25T10:56:28;7.00;;;3.78;;
20754;SDS011;26385;48.470;7.938;2022-08-25T10:59:10;3.65;;;2.92;;
20754;SDS011;26385;48.470;7.938;2022-08-25T11:02:01;6.32;;;3.13;;
20754;SDS011;26385;48.470;7.938;2022-08-25T11:04:43;4.22;;;2.63;;
20754;SDS011;26385;48.470;7.938;2022-08-25T11:07:33;2.70;;;2.50;;
20754;SDS011;26385;48.470;7.938;2022-08-25T11:10:04;2.70;;;2.50;;
20754;SDS011;26385;48.470;7.938;2022-08-25T11:12:35;3.92;;;2.65;;
20754;SDS011;26385;48.470;7.938;2022-08-25T11:15:09;2.58;;;2.20;;
20754;SDS011;26385;48.470;7.938;2022-08-25T11:17:59;2.80;;;2.60;;
20754;SDS011;26385;48.470;7.938;2022-08-25T11:20:33;2.60;;;2.40;;
20754;SDS011;26385;48.470;7.938;2022-08-25T11:25:53;2.70;;;2.50;;
20754;SDS011;26385;48.470;7.938;2022-08-25T11:31:21;3.30;;;2.58;;
20754;SDS011;26385;48.470;7.938;2022-08-25T11:33:48;3.72;;;2.60;;
20754;SDS011;26385;48.470;7.938;2022-08-25T11:36:17;2.40;;;2.30;;
20754;SDS011;26385;48.470;7.938;2022-08-25T11:38:55;2.60;;;2.40;;
20754;SDS011;26385;48.470;7.938;2022-08-25T11:42:02;2.50;;;2.30;;
20754;SDS011;26385;48.470;7.938;2022-08-25T11:47:16;2.92;;;2.33;;
20754;SDS011;26385;48.470;7.938;2022-08-25T11:54:57;2.78;;;2.58;;
20754;SDS011;26385;48.470;7.938;2022-08-25T11:57:30;2.80;;;2.53;;
20754;SDS011;26385;48.470;7.938;2022-08-25T12:00:06;3.47;;;2.58;;
20754;SDS011;26385;48.470;7.938;2022-08-25T12:02:38;2.95;;;2.53;;
20754;SDS011;26385;48.470;7.938;2022-08-25T12:05:08;4.20;;;2.65;;
20754;SDS011;26385;48.470;7.938;2022-08-25T12:15:14;2.63;;;2.42;;
20754;SDS011;26385;48.470;7.938;2022-08-25T12:18:06;2.67;;;2.47;;
20754;SDS011;26385;48.470;7.938;2022-08-25T12:21:08;2.63;;;2.42;;
20754;SDS011;26385;48.470;7.938;2022-08-25T12:23:38;3.75;;;2.22;;
20754;SDS011;26385;48.470;7.938;2022-08-25T12:26:20;3.47;;;2.40;;
20754;SDS011;26385;48.470;7.938;2022-08-25T12:28:58;5.03;;;2.65;;
20754;SDS011;26385;48.470;7.938;2022-08-25T12:31:37;5.15;;;2.40;;
20754;SDS011;26385;48.470;7.938;2022-08-25T12:34:14;2.45;;;2.22;;
20754;SDS011;26385;48.470;7.938;2022-08-25T12:37:04;3.13;;;2.53;;
20754;SDS011;26385;48.470;7.938;2022-08-25T12:39:42;3.13;;;2.15;;
20754;SDS011;26385;48.470;7.938;2022-08-25T12:42:27;3.17;;;2.03;;
20754;SDS011;26385;48.470;7.938;2022-08-25T12:45:13;2.30;;;2.20;;
20754;SDS011;26385;48.470;7.938;2022-08-25T12:47:39;3.13;;;2.42;;
20754;SDS011;26385;48.470;7.938;2022-08-25T12:52:53;2.88;;;2.35;;
20754;SDS011;26385;48.470;7.938;2022-08-25T12:55:25;3.30;;;2.35;;
20754;SDS011;26385;48.470;7.938;2022-08-25T12:57:51;3.30;;;2.40;;
20754;SDS011;26385;48.470;7.938;2022-08-25T13:00:23;4.18;;;2.50;;
20754;SDS011;26385;48.470;7.938;2022-08-25T13:08:44;2.55;;;2.05;;
20754;SDS011;26385;48.470;7.938;2022-08-25T13:11:23;2.25;;;2.10;;
20754;SDS011;26385;48.470;7.938;2022-08-25T13:14:03;2.28;;;2.08;;
20754;SDS011;26385;48.470;7.938;2022-08-25T13:16:53;3.28;;;2.17;;
20754;SDS011;26385;48.470;7.938;2022-08-25T13:19:20;2.35;;;2.15;;
20754;SDS011;26385;48.470;7.938;2022-08-25T13:21:46;3.90;;;2.45;;
20754;SDS011;26385;48.470;7.938;2022-08-25T13:24:19;2.30;;;2.10;;
20754;SDS011;26385;48.470;7.938;2022-08-25T13:26:51;2.92;;;2.28;;
20754;SDS011;26385;48.470;7.938;2022-08-25T13:29:29;2.40;;;2.20;;
20754;SDS011;26385;48.470;7.938;2022-08-25T13:32:04;2.38;;;2.28;;
20754;SDS011;26385;48.470;7.938;2022-08-25T13:34:35;2.28;;;2.08;;
20754;SDS011;26385;48.470;7.938;2022-08-25T13:37:06;10.52;;;2.80;;
20754;SDS011;26385;48.470;7.938;2022-08-25T13:42:49;2.67;;;2.30;;
20754;SDS011;26385;48.470;7.938;2022-08-25T13:45:18;2.33;;;2.20;;
20754;SDS011;26385;48.470;7.938;2022-08-25T13:47:46;2.50;;;2.30;;
20754;SDS011;26385;48.470;7.938;2022-08-25T13:50:30;2.28;;;2.10;;
20754;SDS011;26385;48.470;7.938;2022-08-25T13:55:35;3.10;;;2.00;;
20754;SDS011;26385;48.470;7.938;2022-08-25T13:58:03;2.42;;;2.20;;
20754;SDS011;26385;48.470;7.938;2022-08-25T14:00:40;3.42;;;2.10;;
20754;SDS011;26385;48.470;7.938;2022-08-25T14:03:26;2.30;;;2.10;;
20754;SDS011;26385;48.470;7.938;2022-08-25T14:06:07;2.45;;;2.25;;
20754;SDS011;26385;48.470;7.938;2022-08-25T14:08:41;2.40;;;2.20;;
20754;SDS011;26385;48.470;7.938;2022-08-25T14:11:10;3.47;;;2.25;;
20754;SDS011;26385;48.470;7.938;2022-08-25T14:13:38;2.38;;;2.10;;
20754;SDS011;26385;48.470;7.938;2022-08-25T14:16:12;2.55;;;2.35;;
20754;SDS011;26385;48.470;7.938;2022-08-25T14:18:51;2.72;;;2.53;;
20754;SDS011;26385;48.470;7.938;2022-08-25T14:21:19;2.75;;;2.28;;
20754;SDS011;26385;48.470;7.938;2022-08-25T14:23:47;2.58;;;2.38;;
20754;SDS011;26385;48.470;7.938;2022-08-25T14:26:13;3.70;;;2.40;;
20754;SDS011;26385;48.470;7.938;2022-08-25T14:28:39;2.60;;;2.35;;
20754;SDS011;26385;48.470;7.938;2022-08-25T14:31:05;3.75;;;2.53;;
20754;SDS011;26385;48.470;7.938;2022-08-25T14:33:37;3.05;;;2.33;;
20754;SDS011;26385;48.470;7.938;2022-08-25T14:36:06;2.50;;;2.30;;
20754;SDS011;26385;48.470;7.938;2022-08-25T14:38:32;2.67;;;2.30;;
20754;SDS011;26385;48.470;7.938;2022-08-25T14:40:58;5.25;;;2.35;;
20754;SDS011;26385;48.470;7.938;2022-08-25T14:43:24;4.32;;;2.20;;
20754;SDS011;26385;48.470;7.938;2022-08-25T14:45:49;2.20;;;2.10;;
20754;SDS011;26385;48.470;7.938;2022-08-25T14:48:17;2.65;;;2.45;;
20754;SDS011;26385;48.470;7.938;2022-08-25T14:50:55;2.30;;;2.10;;
20754;SDS011;26385;48.470;7.938;2022-08-25T14:53:22;4.68;;;2.35;;
20754;SDS011;26385;48.470;7.938;2022-08-25T14:55:47;3.25;;;2.30;;
20754;SDS011;26385;48.470;7.938;2022-08-25T14:58:13;2.38;;;2.17;;
20754;SDS011;26385;48.470;7.938;2022-08-25T15:00:42;3.03;;;2.72;;
20754;SDS011;26385;48.470;7.938;2022-08-25T15:03:10;3.13;;;2.30;;
20754;SDS011;26385;48.470;7.938;2022-08-25T15:05:39;3.10;;;2.47;;
20754;SDS011;26385;48.470;7.938;2022-08-25T15:08:05;2.83;;;1.98;;
20754;SDS011;26385;48.470;7.938;2022-08-25T15:10:49;3.13;;;2.30;;
20754;SDS011;26385;48.470;7.938;2022-08-25T15:13:14;2.50;;;2.30;;
20754;SDS011;26385;48.470;7.938;2022-08-25T15:15:42;2.50;;;2.30;;
20754;SDS011;26385;48.470;7.938;2022-08-25T15:18:09;4.60;;;2.60;;
20754;SDS011;26385;48.470;7.938;2022-08-25T15:20:34;7.70;;;2.75;;
20754;SDS011;26385;48.470;7.938;2022-08-25T15:23:00;3.17;;;2.97;;
20754;SDS011;26385;48.470;7.938;2022-08-25T15:25:25;4.47;;;2.58;;
20754;SDS011;26385;48.470;7.938;2022-08-25T15:27:51;5.07;;;2.50;;
20754;SDS011;26385;48.470;7.938;2022-08-25T15:30:16;3.13;;;2.67;;
20754;SDS011;26385;48.470;7.938;2022-08-25T15:32:41;2.90;;;2.42;;
20754;SDS011;26385;48.470;7.938;2022-08-25T15:35:07;3.17;;;2.40;;
20754;SDS011;26385;48.470;7.938;2022-08-25T15:37:32;3.15;;;2.60;;
20754;SDS011;26385;48.470;7.938;2022-08-25T15:39:59;2.60;;;2.35;;
20754;SDS011;26385;48.470;7.938;2022-08-25T15:42:26;2.60;;;2.40;;
20754;SDS011;26385;48.470;7.938;2022-08-25T15:44:52;2.53;;;2.33;;
20754;SDS011;26385;48.470;7.938;2022-08-25T15:47:17;2.60;;;2.40;;
20754;SDS011;26385;48.470;7.938;2022-08-25T15:49:43;2.85;;;2.42;;
20754;SDS011;26385;48.470;7.938;2022-08-25T15:52:08;2.70;;;2.50;;
20754;SDS011;26385;48.470;7.938;2022-08-25T15:54:34;3.17;;;2.88;;
20754;SDS011;26385;48.470;7.938;2022-08-25T15:56:59;3.80;;;2.78;;
20754;SDS011;26385;48.470;7.938;2022-08-25T15:59:25;2.70;;;2.50;;
20754;SDS011;26385;48.470;7.938;2022-08-25T16:01:50;2.83;;;2.60;;
20754;SDS011;26385;48.470;7.938;2022-08-25T16:04:19;4.20;;;2.85;;
20754;SDS011;26385;48.470;7.938;2022-08-25T16:06:46;3.55;;;3.10;;
20754;SDS011;26385;48.470;7.938;2022-08-25T16:09:11;2.80;;;2.60;;
20754;SDS011;26385;48.470;7.938;2022-08-25T16:11:37;3.88;;;2.80;;
20754;SDS011;26385;48.470;7.938;2022-08-25T16:14:03;3.17;;;2.60;;
20754;SDS011;26385;48.470;7.938;2022-08-25T16:16:29;3.95;;;2.70;;
20754;SDS011;26385;48.470;7.938;2022-08-25T16:18:55;3.83;;;2.80;;
20754;SDS011;26385;48.470;7.938;2022-08-25T16:21:23;3.47;;;2.55;;
20754;SDS011;26385;48.470;7.938;2022-08-25T16:23:54;3.67;;;2.75;;